createdAt,value
2018-10-09T01:30:12.116Z,22.87
2018-10-09T01:32:40.747Z,21.77
2018-10-09T01:35:09.336Z,23.23
2018-10-09T01:37:37.931Z,23.70
2018-10-09T01:40:06.548Z,20.00
2018-10-09T01:42:35.120Z,20.50
2018-10-09T01:45:03.692Z,18.23
2018-10-09T01:47:32.427Z,18.90
2018-10-09T01:50:00.981Z,20.33
2018-10-09T01:52:29.544Z,17.63
2018-10-09T01:54:58.128Z,17.10
2018-10-09T01:57:26.648Z,20.47
2018-10-09T01:59:55.225Z,18.90
2018-10-09T02:02:24.579Z,19.67
2018-10-09T02:04:53.107Z,20.47
2018-10-09T02:07:21.712Z,18.23
2018-10-09T02:09:50.232Z,19.03
2018-10-09T02:12:18.767Z,18.70
2018-10-09T02:14:47.308Z,18.60
2018-10-09T02:17:15.897Z,20.27
2018-10-09T02:19:44.408Z,19.47
2018-10-09T02:22:12.957Z,18.33
2018-10-09T02:24:41.495Z,20.13
2018-10-09T02:27:10.147Z,20.57
2018-10-09T02:29:38.690Z,20.70
2018-10-09T02:32:07.232Z,23.03
2018-10-09T02:34:35.787Z,21.43
2018-10-09T02:37:04.336Z,19.60
2018-10-09T02:39:32.872Z,22.37
2018-10-09T02:42:01.408Z,20.70
2018-10-09T02:44:29.951Z,19.53
2018-10-09T02:46:58.480Z,20.47
2018-10-09T02:49:27.027Z,20.67
2018-10-09T02:51:55.575Z,20.57
2018-10-09T02:54:24.167Z,20.10
2018-10-09T02:56:52.724Z,19.67
2018-10-09T02:59:21.252Z,19.80
2018-10-09T03:01:49.792Z,17.80
2018-10-09T03:04:18.373Z,19.80
2018-10-09T03:06:46.942Z,19.53
2018-10-09T03:09:15.516Z,18.40
2018-10-09T03:11:44.092Z,18.70
2018-10-09T03:14:12.617Z,18.90
2018-10-09T03:16:41.176Z,19.17
2018-10-09T03:19:09.754Z,18.83
2018-10-09T03:21:38.308Z,18.07
2018-10-09T03:24:07.072Z,17.80
2018-10-09T03:26:35.720Z,18.37
2018-10-09T03:29:04.304Z,19.70
2018-10-09T03:31:32.943Z,17.87
2018-10-09T03:34:01.472Z,19.60
2018-10-09T03:36:30.005Z,17.90
2018-10-09T03:38:58.577Z,18.27
2018-10-09T03:41:27.120Z,21.50
2018-10-09T03:43:55.743Z,20.70
2018-10-09T03:46:24.271Z,19.70
2018-10-09T03:48:52.804Z,20.37
2018-10-09T03:51:21.364Z,20.33
2018-10-09T03:53:49.908Z,20.37
2018-10-09T03:56:18.456Z,20.10
2018-10-09T03:58:47.016Z,18.20
2018-10-09T04:01:15.560Z,21.47
2018-10-09T04:03:44.089Z,20.30
2018-10-09T04:06:12.627Z,21.67
2018-10-09T04:08:41.177Z,19.90
2018-10-09T04:11:09.703Z,18.90
2018-10-09T04:13:38.255Z,21.27
2018-10-09T04:16:07.539Z,22.60
2018-10-09T04:18:36.091Z,19.20
2018-10-09T04:21:04.680Z,21.03
2018-10-09T04:23:33.224Z,21.30
2018-10-09T04:26:01.779Z,20.03
2018-10-09T04:28:30.354Z,20.00
2018-10-09T04:30:58.912Z,18.70
2018-10-09T04:33:32.512Z,20.73
2018-10-09T04:36:01.066Z,20.10
2018-10-09T04:38:29.805Z,20.20
2018-10-09T04:40:58.340Z,21.00
2018-10-09T04:43:26.886Z,21.03
2018-10-09T04:45:55.412Z,21.30
2018-10-09T04:48:23.972Z,20.07
2018-10-09T04:50:52.496Z,20.70
2018-10-09T04:53:21.027Z,22.80
2018-10-09T04:55:49.580Z,19.60
2018-10-09T04:58:18.745Z,21.77
2018-10-09T05:00:47.309Z,18.60
2018-10-09T05:03:15.827Z,19.60
2018-10-09T05:05:44.356Z,19.70
2018-10-09T05:08:13.792Z,22.10
2018-10-09T05:10:42.332Z,19.37
2018-10-09T05:13:10.872Z,27.53
2018-10-09T05:15:39.428Z,24.47
2018-10-09T05:18:08.031Z,22.83
2018-10-09T05:23:26.625Z,21.17
2018-10-09T05:25:55.376Z,19.83
2018-10-09T05:28:23.968Z,20.93
2018-10-09T05:30:52.751Z,20.20
2018-10-09T05:33:21.333Z,19.53
2018-10-09T05:35:49.871Z,19.87
2018-10-09T05:38:18.404Z,20.33
2018-10-09T05:40:46.952Z,19.50
2018-10-09T05:43:15.482Z,19.20
2018-10-09T05:45:44.061Z,19.40
2018-10-09T05:48:12.612Z,19.37
2018-10-09T05:50:41.163Z,20.50
2018-10-09T05:53:09.711Z,18.67
2018-10-09T05:55:38.328Z,17.90
2018-10-09T05:58:07.214Z,18.03
2018-10-09T06:00:35.675Z,21.70
2018-10-09T06:03:04.199Z,19.93
2018-10-09T06:05:32.732Z,21.50
2018-10-09T06:08:01.292Z,20.00
2018-10-09T06:10:29.851Z,21.97
2018-10-09T06:12:58.373Z,21.17
2018-10-09T06:15:26.903Z,21.67
2018-10-09T06:17:55.509Z,18.70
2018-10-09T06:20:24.057Z,22.37
2018-10-09T06:22:52.666Z,20.00
2018-10-09T06:25:21.200Z,21.17
2018-10-09T06:27:49.787Z,20.50
2018-10-09T06:30:18.309Z,19.93
2018-10-09T06:32:46.842Z,22.47
2018-10-09T06:35:15.392Z,21.80
2018-10-09T06:37:43.933Z,20.00
2018-10-09T06:40:12.488Z,19.93
2018-10-09T06:42:41.092Z,20.13
2018-10-09T06:45:09.620Z,22.40
2018-10-09T06:47:38.600Z,24.07
2018-10-09T06:50:07.391Z,20.97
2018-10-09T06:52:35.956Z,22.27
2018-10-09T06:55:04.660Z,21.10
2018-10-09T06:57:33.259Z,20.27
2018-10-09T07:00:01.856Z,18.63
2018-10-09T07:02:30.338Z,19.90
2018-10-09T07:04:58.876Z,18.33
2018-10-09T07:07:27.452Z,21.77
2018-10-09T07:09:56.017Z,23.10
2018-10-09T07:12:24.556Z,22.17
2018-10-09T07:14:53.227Z,23.23
2018-10-09T11:05:59.885Z,17.57
2018-10-09T11:08:28.481Z,18.60
2018-10-09T11:10:57.024Z,17.73
2018-10-09T11:13:25.569Z,17.67
2018-10-09T11:15:54.142Z,16.90
2018-10-09T11:18:22.668Z,18.90
2018-10-09T11:20:51.205Z,19.33
2018-10-09T11:23:19.777Z,17.40
2018-10-09T11:25:48.557Z,16.43
2018-10-09T11:28:17.263Z,19.03
2018-10-09T11:30:45.848Z,17.07
2018-10-09T11:33:14.477Z,18.63
2018-10-09T11:35:43.032Z,16.90
2018-10-09T11:38:11.556Z,16.80
2018-10-09T11:40:40.117Z,17.63
2018-10-09T11:43:08.674Z,16.00
2018-10-09T11:45:37.245Z,16.47
2018-10-09T11:48:06.070Z,17.17
2018-10-09T11:50:34.616Z,16.53
2018-10-09T11:53:03.172Z,18.23
2018-10-09T11:58:21.863Z,18.83
2018-10-09T12:00:52.025Z,16.43
2018-10-09T12:03:20.629Z,17.73
2018-10-09T12:05:49.329Z,16.43
2018-10-09T12:08:17.867Z,19.40
2018-10-09T12:10:46.452Z,17.10
2018-10-09T12:13:15.004Z,17.63
2018-10-09T12:15:43.571Z,15.80
2018-10-09T12:18:12.144Z,17.43
2018-10-09T12:20:40.698Z,17.23
2018-10-09T12:23:09.400Z,17.10
2018-10-09T12:25:37.991Z,15.97
2018-10-09T12:28:06.537Z,17.10
2018-10-09T12:30:35.113Z,16.70
2018-10-09T12:33:03.735Z,15.90
2018-10-09T12:35:32.278Z,16.77
2018-10-09T12:38:00.823Z,15.10
2018-10-09T12:40:29.364Z,17.17
2018-10-09T12:42:57.910Z,15.80
2018-10-09T12:45:26.431Z,14.37
2018-10-09T12:47:55.044Z,15.33
2018-10-09T12:50:23.591Z,16.33
2018-10-09T12:52:52.189Z,14.53
2018-10-09T12:55:20.698Z,16.10
2018-10-09T12:57:49.232Z,14.00
2018-10-09T13:00:17.780Z,15.67
2018-10-09T13:02:46.356Z,17.70
2018-10-09T13:05:15.309Z,17.90
2018-10-09T13:07:43.868Z,16.43
2018-10-09T13:10:12.459Z,17.30
2018-10-09T13:12:41.058Z,18.73
2018-10-09T13:15:10.188Z,15.30
2018-10-09T13:17:39.061Z,17.13
2018-10-09T13:20:07.805Z,18.20
2018-10-09T13:22:36.494Z,17.47
2018-10-09T13:25:05.033Z,18.10
2018-10-09T13:27:33.567Z,17.40
2018-10-09T13:30:02.137Z,17.20
2018-10-09T13:32:30.693Z,16.23
2018-10-09T13:34:59.219Z,16.20
2018-10-09T13:37:27.792Z,17.47
2018-10-09T13:39:56.305Z,19.00
2018-10-09T13:42:24.884Z,17.37
2018-10-09T13:44:53.468Z,17.97
2018-10-09T13:47:22.049Z,17.80
2018-10-09T13:49:50.568Z,19.47
2018-10-09T13:52:19.123Z,14.67
2018-10-09T13:54:47.723Z,15.50
2018-10-09T13:57:16.555Z,18.27
2018-10-09T13:59:45.057Z,18.73
2018-10-09T14:02:13.628Z,19.70
2018-10-09T14:04:42.246Z,16.87
2018-10-09T14:07:10.834Z,19.30
2018-10-09T14:09:39.371Z,16.50
2018-10-09T14:12:07.934Z,18.10
2018-10-09T14:14:36.891Z,18.10
2018-10-09T14:17:05.468Z,16.70
2018-10-09T14:19:34.019Z,18.43
2018-10-09T14:22:02.592Z,18.47
2018-10-09T14:24:31.395Z,17.73
2018-10-09T14:26:59.980Z,17.40
2018-10-09T14:29:28.524Z,18.90
2018-10-09T14:31:57.096Z,19.57
2018-10-09T14:34:25.659Z,18.20
2018-10-09T14:36:54.224Z,17.93
2018-10-09T14:39:22.764Z,19.87
2018-10-09T14:41:51.311Z,19.50
2018-10-09T14:44:19.885Z,19.70
2018-10-09T14:46:48.432Z,17.83
2018-10-09T14:49:16.992Z,21.20
2018-10-09T14:51:45.553Z,22.50
2018-10-09T14:54:14.151Z,24.33
2018-10-09T14:56:42.691Z,20.30
2018-10-09T14:59:11.333Z,20.47
2018-10-09T15:01:39.899Z,18.83
2018-10-09T15:04:08.555Z,20.07
2018-10-09T15:06:37.093Z,16.93
2018-10-09T15:09:09.282Z,22.57
2018-10-09T15:11:37.800Z,20.03
2018-10-09T15:14:06.371Z,20.57
2018-10-09T15:16:34.984Z,18.53
2018-10-09T15:19:03.494Z,20.00
2018-10-09T15:21:32.039Z,18.97
2018-10-09T15:24:00.613Z,22.40
2018-10-09T15:26:29.135Z,20.60
2018-10-09T15:28:57.877Z,19.90
2018-10-09T15:31:26.448Z,20.90
2018-10-09T15:33:54.968Z,21.57
2018-10-09T15:36:23.523Z,21.50
2018-10-09T15:38:52.069Z,21.50
2018-10-09T15:41:20.609Z,22.17
2018-10-09T15:43:49.168Z,22.27
2018-10-09T15:46:17.713Z,23.80
2018-10-09T15:48:46.247Z,22.83
2018-10-09T15:51:14.792Z,23.60
2018-10-09T15:53:43.342Z,20.70
2018-10-09T15:56:18.881Z,21.70
2018-10-09T15:58:47.404Z,18.77
2018-10-09T16:01:15.953Z,19.90
2018-10-09T16:03:44.499Z,20.57
2018-10-09T16:06:13.059Z,19.33
2018-10-09T16:08:41.588Z,22.13
2018-10-09T16:11:10.152Z,24.17
2018-10-09T16:13:38.681Z,24.63
2018-10-09T16:16:07.308Z,24.47
2018-10-09T21:05:14.124Z,22.27
2018-10-09T21:07:42.635Z,23.80
2018-10-09T21:10:11.178Z,25.27
2018-10-09T21:12:39.723Z,23.40
2018-10-09T21:15:08.348Z,23.03
2018-10-09T21:17:36.940Z,24.10
2018-10-09T21:20:05.549Z,24.00
2018-10-09T21:22:34.180Z,25.40
2018-10-09T21:25:02.759Z,24.47
2018-10-09T21:27:31.750Z,24.00
2018-10-09T21:30:00.468Z,23.00
2018-10-09T21:32:28.920Z,22.50
2018-10-09T21:34:57.498Z,23.80
2018-10-09T21:37:26.079Z,22.13
2018-10-09T21:39:54.664Z,23.00
2018-10-09T21:42:23.184Z,22.80
2018-10-09T21:44:51.728Z,24.13
2018-10-09T21:47:20.299Z,25.20
2018-10-09T21:49:48.884Z,21.43
2018-10-09T21:52:17.496Z,22.20
2018-10-09T21:54:46.060Z,23.10
2018-10-09T21:57:14.656Z,22.47
2018-10-09T21:59:43.260Z,22.33
2018-10-09T22:02:11.840Z,25.33
2018-10-09T22:04:40.379Z,24.33
2018-10-09T22:07:09.001Z,24.10
2018-10-09T22:09:37.553Z,22.83
2018-10-09T22:12:06.130Z,23.97
2018-10-09T22:14:34.661Z,22.50
2018-10-09T22:17:03.860Z,22.73
2018-10-09T22:22:35.144Z,25.57
2018-10-09T22:25:03.695Z,23.70
2018-10-09T22:27:32.236Z,24.80
2018-10-09T22:30:00.832Z,24.67
2018-10-09T22:32:29.460Z,23.57
2018-10-09T22:34:57.991Z,22.13
2018-10-09T22:37:26.524Z,24.10
2018-10-09T22:39:55.059Z,24.37
2018-10-09T22:42:23.589Z,24.03
2018-10-09T22:44:52.144Z,24.80
2018-10-09T22:47:20.719Z,23.83
2018-10-09T22:49:49.256Z,24.53
2018-10-09T22:52:17.796Z,25.23
2018-10-09T22:54:46.316Z,26.53
2018-10-09T22:57:14.860Z,24.27
2018-10-09T22:59:43.412Z,24.40
2018-10-09T23:02:11.965Z,22.57
2018-10-09T23:04:40.532Z,23.40
2018-10-09T23:07:09.063Z,25.40
2018-10-09T23:09:37.596Z,23.93
2018-10-09T23:12:06.134Z,25.47
2018-10-09T23:14:34.704Z,24.00
2018-10-09T23:17:03.293Z,23.97
2018-10-09T23:22:34.716Z,23.23
2018-10-09T23:25:03.295Z,25.20
2018-10-09T23:27:32.037Z,24.37
2018-10-09T23:30:00.800Z,25.00
2018-10-09T23:32:29.534Z,25.23
2018-10-09T23:34:58.127Z,26.27
2018-10-09T23:37:27.087Z,24.40
2018-10-09T23:39:55.852Z,24.97
2018-10-09T23:42:24.447Z,25.80
2018-10-09T23:44:54.104Z,23.10
2018-10-09T23:47:22.757Z,23.50
2018-10-09T23:49:51.508Z,23.60
2018-10-09T23:52:20.439Z,23.17
2018-10-09T23:54:49.145Z,24.47
2018-10-09T23:57:17.951Z,25.30
2018-10-09T23:59:46.645Z,23.50
